Accueil
METAR-TAF:

METAR-TAF

Aéroports :

Butgenbach, Belgique

Elsenborn

latitude: 50-28N, longitude: 006-11E, altitude: 564 m

Observation

Le bulletin a été fait il y a 28 minutes, à 09:25 UTC
Vent 9 kt de sud/sud-ouest
Température 19°C
Humidité 73%
Pression 1018 hPa
Visibilité 10 km ou plus

METAR: EBLB 170925Z AUTO 21009KT 9999 FEW076/// SCT110/// 19/14 Q1018 BLU

Heure: 11:53 (09:53 UTC)


TAF: absent

Observations et prévisions météorologiques de plus de 4000 aéroports (messages METAR et TAF).

Les stations disponibles sont représentées par des disques jaunes et rouges sur la carte.

Passer la souris dessus pour voir le nom de la station.

Cliquer dessus pour voir les observations et prévisions météorologiques.

Pour changer de carte: cliquez sur les boutons verts avec une croix noire pour zoomer, sur le bouton vert avec un tiret pour effectuer un zoom arrière, ou sur les flèches vertes pour les cartes adjacentes.


METAR-TAF: